createdAt,value
2023-02-25T00:01:25.520Z,12.32
2023-02-25T00:02:59.884Z,8.57
2023-02-25T00:04:32.673Z,11.60
2023-02-25T00:06:05.729Z,8.65
2023-02-25T00:07:38.526Z,9.55
2023-02-25T00:09:11.401Z,12.45
2023-02-25T00:10:43.232Z,9.93
2023-02-25T00:12:17.257Z,9.82
2023-02-25T00:13:49.409Z,10.90
2023-02-25T00:15:22.123Z,10.60
2023-02-25T00:16:55.937Z,9.05
2023-02-25T00:18:30.870Z,10.15
2023-02-25T00:20:05.790Z,9.73
2023-02-25T00:21:39.016Z,10.40
2023-02-25T00:23:10.896Z,11.00
2023-02-25T00:24:43.766Z,13.90
2023-02-25T00:26:17.588Z,9.80
2023-02-25T00:27:51.639Z,9.32
2023-02-25T00:29:24.351Z,12.90
2023-02-25T00:30:56.175Z,9.63
2023-02-25T00:32:29.094Z,7.90
2023-02-25T00:34:01.907Z,10.98
2023-02-25T00:35:34.658Z,9.50
2023-02-25T00:37:07.375Z,10.27
2023-02-25T00:38:40.360Z,11.25
2023-02-25T00:40:14.622Z,7.68
2023-02-25T00:41:47.324Z,13.07
2023-02-25T00:43:22.014Z,9.80
2023-02-25T00:44:54.732Z,10.13
2023-02-25T00:46:29.237Z,14.50
2023-02-25T00:48:01.022Z,12.00
2023-02-25T00:49:34.129Z,14.20
2023-02-25T00:51:07.563Z,11.45
2023-02-25T00:52:40.798Z,12.07
2023-02-25T00:54:13.472Z,12.38
2023-02-25T00:55:45.198Z,12.00
2023-02-25T00:57:17.903Z,11.10
2023-02-25T00:58:52.123Z,11.95
2023-02-25T01:00:24.857Z,11.35
2023-02-25T01:01:57.592Z,12.05
2023-02-25T01:03:29.373Z,8.77
2023-02-25T01:05:02.466Z,10.88
2023-02-25T01:06:36.304Z,10.35
2023-02-25T01:08:08.284Z,12.13
2023-02-25T01:09:41.012Z,12.15
2023-02-25T01:11:13.916Z,13.57
2023-02-25T01:12:46.811Z,9.02
2023-02-25T01:14:22.972Z,13.70
2023-02-25T01:15:55.730Z,11.15
2023-02-25T01:17:27.691Z,13.18
2023-02-25T01:19:02.581Z,14.48
2023-02-25T01:20:40.132Z,12.57
2023-02-25T01:22:12.843Z,12.63
2023-02-25T01:23:45.366Z,11.43
2023-02-25T01:25:18.458Z,10.80
2023-02-25T01:26:53.443Z,13.60
2023-02-25T01:28:28.617Z,9.55
2023-02-25T01:30:02.829Z,19.85
2023-02-25T01:31:35.675Z,13.07
2023-02-25T01:33:08.518Z,13.13
2023-02-25T01:34:41.676Z,11.85
2023-02-25T01:36:14.355Z,14.85
2023-02-25T01:37:47.559Z,12.15
2023-02-25T01:39:22.141Z,10.23
2023-02-25T01:40:57.587Z,14.65
2023-02-25T01:42:30.374Z,16.55
2023-02-25T01:44:12.366Z,15.13
2023-02-25T01:45:45.610Z,13.35
2023-02-25T01:47:21.381Z,13.50
2023-02-25T01:48:54.103Z,12.10
2023-02-25T01:50:32.650Z,12.50
2023-02-25T01:52:09.359Z,8.70
2023-02-25T01:53:46.991Z,14.98
2023-02-25T01:55:19.010Z,13.02
2023-02-25T01:56:56.079Z,16.30
2023-02-25T01:58:28.734Z,8.30
2023-02-25T02:00:01.534Z,11.07
2023-02-25T02:01:38.704Z,10.35
2023-02-25T02:03:15.913Z,12.07
2023-02-25T02:04:50.958Z,9.52
2023-02-25T02:06:28.267Z,13.05
2023-02-25T02:08:01.038Z,8.60
2023-02-25T02:09:34.673Z,7.80
2023-02-25T02:11:06.761Z,6.93
2023-02-25T02:12:41.581Z,8.80
2023-02-25T02:14:17.717Z,6.20
2023-02-25T02:15:59.213Z,5.13
2023-02-25T02:17:38.282Z,4.57
2023-02-25T02:19:24.756Z,5.60
2023-02-25T02:21:12.616Z,4.40
2023-02-25T02:23:03.670Z,5.57
2023-02-25T02:25:12.652Z,4.88
2023-02-25T02:26:52.848Z,7.63
2023-02-25T02:28:54.467Z,2.60
2023-02-25T02:30:39.650Z,7.65
2023-02-25T02:32:20.579Z,4.78
2023-02-25T02:33:59.544Z,4.97
2023-02-25T02:35:41.173Z,6.57
2023-02-25T02:37:26.089Z,7.90
2023-02-25T02:39:06.162Z,7.78
2023-02-25T02:40:54.416Z,6.70
2023-02-25T02:42:34.174Z,10.00
2023-02-25T02:44:16.995Z,13.68
2023-02-25T02:45:56.381Z,11.73
2023-02-25T02:47:34.505Z,11.85
2023-02-25T02:49:12.426Z,12.45
2023-02-25T02:50:46.847Z,9.60
2023-02-25T02:52:24.241Z,6.85
2023-02-25T02:54:00.557Z,8.55
2023-02-25T02:55:36.222Z,13.82
2023-02-25T02:57:10.741Z,9.75
2023-02-25T02:58:47.235Z,7.57
2023-02-25T03:00:25.513Z,10.90
2023-02-25T03:02:03.689Z,15.65
2023-02-25T03:03:43.789Z,9.63
2023-02-25T03:05:17.570Z,13.95
2023-02-25T03:06:55.916Z,10.75
2023-02-25T03:08:30.438Z,14.02
2023-02-25T03:10:04.776Z,13.65
2023-02-25T03:11:37.487Z,12.30
2023-02-25T03:13:09.256Z,7.38
2023-02-25T03:14:42.204Z,13.80
2023-02-25T03:16:21.550Z,14.05
2023-02-25T03:17:58.243Z,14.65
2023-02-25T03:19:37.072Z,11.20
2023-02-25T03:21:20.790Z,11.88
2023-02-25T03:22:54.981Z,13.68
2023-02-25T03:24:33.117Z,13.23
2023-02-25T03:26:15.138Z,11.20
2023-02-25T03:27:52.876Z,13.25
2023-02-25T03:29:28.544Z,13.25
2023-02-25T03:31:06.428Z,15.80
2023-02-25T03:32:41.839Z,13.20
2023-02-25T03:34:18.965Z,14.05
2023-02-25T03:35:54.895Z,15.35
2023-02-25T03:37:32.160Z,9.07
2023-02-25T03:39:10.635Z,12.75
2023-02-25T03:40:43.524Z,8.90
2023-02-25T03:42:20.730Z,13.13
2023-02-25T03:43:56.207Z,11.48
2023-02-25T03:45:29.266Z,13.93
2023-02-25T03:47:06.408Z,10.70
2023-02-25T03:48:39.763Z,15.63
2023-02-25T03:50:19.343Z,10.20
2023-02-25T03:51:57.488Z,13.68
2023-02-25T03:53:32.784Z,9.88
2023-02-25T03:55:09.663Z,10.93
2023-02-25T03:56:44.953Z,10.88
2023-02-25T03:58:17.672Z,10.02
2023-02-25T03:59:49.621Z,12.07
2023-02-25T04:01:27.197Z,15.70
2023-02-25T04:02:59.931Z,11.80
2023-02-25T04:04:32.655Z,12.95
2023-02-25T04:06:05.074Z,12.15
2023-02-25T04:07:39.938Z,12.43
2023-02-25T04:09:12.721Z,13.05
2023-02-25T04:10:44.772Z,11.60
2023-02-25T04:12:17.517Z,11.90
2023-02-25T04:13:50.246Z,9.48
2023-02-25T04:15:22.500Z,10.52
2023-02-25T04:16:55.292Z,11.43
2023-02-25T04:18:27.718Z,10.40
2023-02-25T04:20:00.400Z,8.00
2023-02-25T04:21:35.208Z,12.18
2023-02-25T04:23:09.554Z,12.40
2023-02-25T04:24:42.314Z,13.07
2023-02-25T04:26:15.137Z,8.70
2023-02-25T04:27:46.923Z,12.27
2023-02-25T04:29:19.607Z,8.98
2023-02-25T04:30:52.392Z,8.27
2023-02-25T04:32:25.577Z,11.05
2023-02-25T04:33:58.446Z,12.15
2023-02-25T04:35:31.232Z,11.18
2023-02-25T04:37:04.641Z,10.88
2023-02-25T04:38:38.692Z,11.60
2023-02-25T04:40:15.738Z,12.55
2023-02-25T04:41:48.408Z,12.68
2023-02-25T04:43:20.166Z,10.63
2023-02-25T04:44:52.878Z,10.75
2023-02-25T04:46:26.194Z,12.63
2023-02-25T04:47:58.214Z,10.20
2023-02-25T04:49:30.904Z,10.18
2023-02-25T04:51:03.726Z,16.63
2023-02-25T04:52:35.621Z,7.25
2023-02-25T04:54:09.708Z,10.77
2023-02-25T04:55:42.388Z,8.90
2023-02-25T04:57:15.136Z,14.55
2023-02-25T04:58:47.957Z,8.32
2023-02-25T05:00:24.119Z,13.00
2023-02-25T05:01:55.959Z,9.90
2023-02-25T05:03:28.769Z,8.73
2023-02-25T05:05:00.531Z,11.43
2023-02-25T05:06:33.361Z,12.02
2023-02-25T05:08:06.103Z,11.38
2023-02-25T05:09:39.159Z,8.93
2023-02-25T05:11:11.832Z,11.75
2023-02-25T05:12:44.715Z,12.20
2023-02-25T05:14:17.434Z,10.13
2023-02-25T05:15:50.548Z,12.93
2023-02-25T05:17:23.270Z,11.13
2023-02-25T05:18:55.988Z,7.53
2023-02-25T05:20:29.462Z,11.57
2023-02-25T05:22:02.173Z,10.80
2023-02-25T05:23:34.877Z,14.43
2023-02-25T05:25:10.889Z,10.07
2023-02-25T05:26:43.808Z,9.90
2023-02-25T05:28:16.524Z,9.45
2023-02-25T05:29:51.397Z,13.75
2023-02-25T05:31:24.876Z,9.93
2023-02-25T05:32:57.782Z,8.57
2023-02-25T05:34:30.567Z,10.43
2023-02-25T05:36:03.330Z,10.02
2023-02-25T05:37:35.410Z,10.93
2023-02-25T05:39:08.124Z,11.43
2023-02-25T05:40:41.297Z,8.48
2023-02-25T05:42:14.010Z,13.55
2023-02-25T05:43:46.794Z,12.07
2023-02-25T05:45:18.694Z,9.32
2023-02-25T05:46:51.391Z,10.02
2023-02-25T05:48:24.769Z,9.10
2023-02-25T05:49:56.510Z,12.13
2023-02-25T05:51:29.295Z,15.48
2023-02-25T05:53:01.999Z,12.25
2023-02-25T05:54:34.689Z,8.13
2023-02-25T05:56:13.255Z,12.68
2023-02-25T05:57:45.947Z,12.13
2023-02-25T05:59:18.865Z,9.70
2023-02-25T06:00:51.857Z,10.65
2023-02-25T06:02:24.573Z,10.80
2023-02-25T06:03:58.428Z,11.60
2023-02-25T06:05:30.333Z,16.90
2023-02-25T06:07:04.197Z,11.07
2023-02-25T06:08:37.111Z,14.48
2023-02-25T06:10:11.485Z,11.15
2023-02-25T06:11:45.959Z,8.82
2023-02-25T06:13:18.635Z,12.10
2023-02-25T06:14:50.423Z,13.43
2023-02-25T06:16:25.674Z,9.68
2023-02-25T06:17:57.743Z,9.77
2023-02-25T06:19:30.526Z,11.65
2023-02-25T06:21:05.321Z,7.40
2023-02-25T06:22:38.087Z,10.32
2023-02-25T06:24:11.706Z,15.02
2023-02-25T06:25:44.398Z,12.75
2023-02-25T06:27:18.672Z,8.77
2023-02-25T06:28:51.406Z,10.50
2023-02-25T06:30:24.282Z,13.75
2023-02-25T06:31:57.083Z,10.63
2023-02-25T06:33:31.723Z,8.85
2023-02-25T06:35:06.437Z,10.27
2023-02-25T06:36:39.135Z,11.60
2023-02-25T06:38:10.899Z,11.38
2023-02-25T06:39:43.604Z,14.55
2023-02-25T06:41:19.530Z,9.82
2023-02-25T06:42:53.582Z,9.73
2023-02-25T06:44:27.009Z,12.95
2023-02-25T06:45:58.785Z,9.68
2023-02-25T06:47:31.549Z,12.95
2023-02-25T06:49:04.230Z,14.77
2023-02-25T06:50:39.181Z,10.43
2023-02-25T06:52:11.908Z,11.15
2023-02-25T06:53:47.084Z,13.10
2023-02-25T06:55:20.079Z,10.68
2023-02-25T06:56:53.539Z,12.80
2023-02-25T06:58:27.580Z,7.95
2023-02-25T07:00:00.306Z,11.18
2023-02-25T07:01:32.185Z,10.73
2023-02-25T07:03:05.330Z,12.75
2023-02-25T07:04:38.096Z,11.27
2023-02-25T07:06:10.913Z,10.48
2023-02-25T07:07:43.582Z,7.95
2023-02-25T07:09:16.278Z,11.88
2023-02-25T07:10:49.163Z,10.82
2023-02-25T07:12:22.230Z,14.75
2023-02-25T07:13:55.797Z,8.35
2023-02-25T07:15:28.542Z,10.75
2023-02-25T07:17:01.282Z,13.43
2023-02-25T07:18:33.975Z,11.07
2023-02-25T07:20:07.896Z,12.05
2023-02-25T07:21:40.564Z,14.27
2023-02-25T07:23:13.249Z,13.32
2023-02-25T07:24:46.696Z,16.13
2023-02-25T07:26:19.429Z,14.23
2023-02-25T07:27:54.240Z,9.00
2023-02-25T07:29:28.362Z,12.68
2023-02-25T07:31:00.568Z,16.23
2023-02-25T07:32:33.499Z,12.45
2023-02-25T07:34:06.845Z,11.10
2023-02-25T07:35:39.520Z,8.77
2023-02-25T07:37:13.536Z,11.43
2023-02-25T07:38:46.776Z,11.95
2023-02-25T07:40:19.940Z,11.63
2023-02-25T07:41:52.614Z,12.38
2023-02-25T07:43:25.559Z,14.23
2023-02-25T07:45:02.035Z,8.80
2023-02-25T07:46:35.083Z,12.82
2023-02-25T07:48:07.868Z,9.93
2023-02-25T07:49:40.571Z,10.40
2023-02-25T07:51:15.438Z,7.45
2023-02-25T07:52:48.146Z,10.13
2023-02-25T07:54:21.497Z,10.60
2023-02-25T07:55:54.192Z,7.65
2023-02-25T07:57:26.919Z,8.05
2023-02-25T07:58:59.686Z,11.27
2023-02-25T08:00:33.768Z,10.60
2023-02-25T08:02:10.234Z,8.90
2023-02-25T08:03:42.981Z,10.70
2023-02-25T08:05:15.709Z,8.80
2023-02-25T08:06:48.394Z,8.40
2023-02-25T08:08:20.786Z,10.00
2023-02-25T08:09:53.472Z,10.77
2023-02-25T08:11:27.358Z,8.77
2023-02-25T08:13:00.174Z,7.95
2023-02-25T08:14:32.879Z,11.73
2023-02-25T08:16:07.821Z,8.40
2023-02-25T08:17:40.546Z,9.48
2023-02-25T08:19:13.246Z,11.18
2023-02-25T08:20:48.187Z,10.52
2023-02-25T08:22:20.872Z,10.05
2023-02-25T08:23:54.625Z,8.85
2023-02-25T08:25:27.908Z,6.43
2023-02-25T08:27:00.736Z,6.53
2023-02-25T08:28:37.043Z,9.23
2023-02-25T08:30:11.444Z,7.13
2023-02-25T08:31:46.748Z,7.75
2023-02-25T08:33:20.375Z,6.22
2023-02-25T08:34:53.635Z,5.25
2023-02-25T08:36:28.422Z,5.25
2023-02-25T08:38:01.117Z,7.00
2023-02-25T08:39:35.813Z,5.18
2023-02-25T08:41:09.663Z,7.10
2023-02-25T08:42:42.386Z,8.73
2023-02-25T08:44:15.066Z,8.57
2023-02-25T08:45:47.778Z,6.67
2023-02-25T08:47:21.785Z,6.63
2023-02-25T08:48:55.698Z,5.67
2023-02-25T08:50:29.688Z,6.10
2023-02-25T08:52:02.410Z,4.77
2023-02-25T08:53:36.007Z,3.83
2023-02-25T08:55:09.807Z,6.33
2023-02-25T08:56:44.309Z,7.43
2023-02-25T08:58:17.377Z,5.72
2023-02-25T08:59:51.850Z,7.38
2023-02-25T09:01:25.331Z,6.97
2023-02-25T09:02:59.612Z,5.90
2023-02-25T09:04:32.381Z,9.80
2023-02-25T09:06:05.576Z,9.45
2023-02-25T09:07:38.297Z,10.65
2023-02-25T09:09:13.299Z,8.27
2023-02-25T09:10:50.713Z,7.78
2023-02-25T09:12:24.895Z,8.90
2023-02-25T09:13:57.659Z,9.57
2023-02-25T09:15:32.438Z,11.63
2023-02-25T09:17:06.395Z,11.00
2023-02-25T09:18:40.439Z,12.65
2023-02-25T09:20:13.214Z,10.85
2023-02-25T09:21:48.007Z,10.38
2023-02-25T09:23:20.828Z,14.35
2023-02-25T09:24:53.546Z,12.10
2023-02-25T09:26:26.300Z,11.98
2023-02-25T09:27:59.015Z,14.85
2023-02-25T09:29:32.820Z,10.88
2023-02-25T09:31:06.294Z,10.65
2023-02-25T09:32:39.395Z,8.02
2023-02-25T09:34:15.183Z,11.50
2023-02-25T09:35:48.030Z,12.50
2023-02-25T09:37:21.590Z,15.30
2023-02-25T09:38:54.341Z,10.18
2023-02-25T09:40:27.704Z,8.05
2023-02-25T09:42:07.218Z,7.75
2023-02-25T09:43:43.097Z,10.40
2023-02-25T09:45:19.873Z,8.48
2023-02-25T09:46:56.021Z,7.88
2023-02-25T09:48:32.624Z,7.40
2023-02-25T09:50:12.685Z,7.18
2023-02-25T09:51:50.152Z,7.55
2023-02-25T09:53:27.759Z,11.70
2023-02-25T09:55:06.976Z,11.68
2023-02-25T09:56:39.984Z,10.07
2023-02-25T09:58:19.875Z,11.02
2023-02-25T09:59:54.229Z,10.13
2023-02-25T10:01:34.262Z,8.38
2023-02-25T10:03:16.463Z,12.60
2023-02-25T10:04:58.390Z,10.13
2023-02-25T10:06:36.885Z,9.77
2023-02-25T10:08:18.994Z,9.85
2023-02-25T10:09:57.321Z,7.85
2023-02-25T10:11:44.385Z,12.55
2023-02-25T10:13:27.025Z,9.40
2023-02-25T10:15:25.995Z,10.48
2023-02-25T10:17:06.525Z,10.15
2023-02-25T10:18:57.287Z,11.80
2023-02-25T10:20:52.932Z,9.20
2023-02-25T10:22:43.348Z,8.35
2023-02-25T10:24:27.097Z,8.52
2023-02-25T10:26:03.620Z,8.32
2023-02-25T10:27:39.882Z,7.07
2023-02-25T10:29:20.362Z,7.13
2023-02-25T10:31:00.134Z,6.93
2023-02-25T10:32:37.221Z,7.45
2023-02-25T10:34:22.147Z,9.00
2023-02-25T10:36:00.682Z,9.00
2023-02-25T10:37:37.547Z,8.90
2023-02-25T10:39:11.915Z,7.68
2023-02-25T10:40:44.655Z,9.70
2023-02-25T10:42:17.936Z,11.10
2023-02-25T10:43:52.305Z,9.10
2023-02-25T10:45:27.909Z,9.37
2023-02-25T10:47:04.952Z,8.50
2023-02-25T10:48:39.225Z,11.23
2023-02-25T10:50:19.075Z,9.50
2023-02-25T10:52:03.688Z,8.00
2023-02-25T10:53:37.757Z,7.37
2023-02-25T10:55:27.443Z,7.03
2023-02-25T10:57:02.491Z,9.80
2023-02-25T10:58:40.573Z,9.53
2023-02-25T11:00:28.804Z,9.13
2023-02-25T11:02:02.717Z,7.00
2023-02-25T11:03:47.697Z,6.93
2023-02-25T11:05:43.562Z,6.07
2023-02-25T11:07:32.176Z,6.10
2023-02-25T11:09:27.674Z,9.20
2023-02-25T11:11:02.905Z,7.33
2023-02-25T11:12:42.320Z,5.90
2023-02-25T11:14:19.478Z,7.83
2023-02-25T11:15:52.353Z,7.80
2023-02-25T11:17:27.841Z,6.87
2023-02-25T11:19:04.042Z,8.13
2023-02-25T11:20:37.003Z,6.87
2023-02-25T11:22:12.534Z,6.03
2023-02-25T11:23:47.622Z,5.15
2023-02-25T11:25:25.271Z,6.60
2023-02-25T11:26:59.044Z,7.47
2023-02-25T11:28:35.523Z,7.27
2023-02-25T11:30:17.590Z,5.03
2023-02-25T11:31:54.909Z,6.45
2023-02-25T11:33:36.907Z,6.05
2023-02-25T11:35:18.187Z,5.43
2023-02-25T11:36:51.386Z,5.73
2023-02-25T11:38:28.240Z,7.47
2023-02-25T11:40:01.018Z,7.90
2023-02-25T11:41:35.111Z,7.17
2023-02-25T11:43:20.308Z,8.77
2023-02-25T11:45:00.161Z,8.47
2023-02-25T11:46:34.669Z,8.97
2023-02-25T11:48:19.497Z,9.20
2023-02-25T11:50:20.620Z,6.53
2023-02-25T11:52:03.185Z,4.47
2023-02-25T11:53:48.243Z,5.23
2023-02-25T11:55:36.420Z,9.53
2023-02-25T11:57:18.979Z,7.60
2023-02-25T11:59:05.994Z,6.70
2023-02-25T12:00:46.811Z,8.50
2023-02-25T12:02:33.727Z,6.90
2023-02-25T12:04:22.507Z,4.70
2023-02-25T12:06:05.035Z,9.23
2023-02-25T12:08:16.828Z,8.57
2023-02-25T12:10:19.294Z,5.97
2023-02-25T12:12:39.454Z,4.10
2023-02-25T12:14:33.640Z,7.73
2023-02-25T12:16:58.624Z,4.57
2023-02-25T12:18:52.560Z,11.17
2023-02-25T12:21:00.992Z,8.10
2023-02-25T12:23:02.362Z,10.90
2023-02-25T12:24:51.525Z,6.68
2023-02-25T12:26:37.774Z,6.15
2023-02-25T12:28:45.390Z,10.18
2023-02-25T12:31:02.966Z,8.10
2023-02-25T12:32:53.681Z,8.40
2023-02-25T12:34:50.961Z,6.75
2023-02-25T12:36:36.195Z,5.95
2023-02-25T12:38:53.062Z,6.95
2023-02-25T12:40:52.530Z,4.43
2023-02-25T12:42:44.919Z,4.95
2023-02-25T12:44:38.141Z,7.18
2023-02-25T12:46:22.216Z,5.60
2023-02-25T12:48:22.077Z,4.07
2023-02-25T12:50:22.206Z,6.38
2023-02-25T12:52:23.518Z,2.85
2023-02-25T12:54:05.063Z,3.58
2023-02-25T12:55:55.605Z,1.95
2023-02-25T12:57:45.604Z,0.60
2023-02-25T12:59:50.936Z,1.27
2023-02-25T13:01:48.135Z,1.83
2023-02-25T13:03:33.098Z,0.70
2023-02-25T13:05:29.454Z,4.43
2023-02-25T13:07:30.645Z,2.88
2023-02-25T13:09:33.469Z,4.13
2023-02-25T13:11:17.113Z,3.15
2023-02-25T13:13:01.712Z,2.80
2023-02-25T13:14:47.659Z,1.92
2023-02-25T13:16:32.723Z,2.28
2023-02-25T13:18:22.532Z,2.92
2023-02-25T13:20:33.756Z,1.98
2023-02-25T13:22:18.958Z,1.70
2023-02-25T13:24:19.967Z,4.97
2023-02-25T13:26:07.498Z,4.57
2023-02-25T13:27:54.232Z,4.95
2023-02-25T13:29:40.476Z,3.35
2023-02-25T13:31:20.025Z,5.30
2023-02-25T13:33:05.924Z,6.32
2023-02-25T13:34:44.754Z,5.15
2023-02-25T13:36:33.701Z,5.55
2023-02-25T13:38:24.345Z,3.95
2023-02-25T13:40:21.737Z,4.13
2023-02-25T13:42:18.093Z,3.03
2023-02-25T13:44:18.298Z,5.03
2023-02-25T13:46:03.229Z,3.63
2023-02-25T13:47:52.724Z,4.47
2023-02-25T13:50:03.624Z,2.35
2023-02-25T13:52:07.743Z,3.10
2023-02-25T13:53:58.834Z,3.25
2023-02-25T13:55:45.142Z,3.47
2023-02-25T13:57:36.381Z,3.15
2023-02-25T13:59:23.159Z,3.13
2023-02-25T14:01:20.601Z,2.53
2023-02-25T14:03:15.830Z,3.17
2023-02-25T14:05:04.875Z,2.25
2023-02-25T14:06:52.184Z,1.67
2023-02-25T14:08:41.887Z,2.80
2023-02-25T14:10:30.987Z,2.67
2023-02-25T14:12:17.149Z,2.15
2023-02-25T14:14:07.533Z,1.90
2023-02-25T14:15:55.984Z,0.80
2023-02-25T14:17:46.956Z,0.68
2023-02-25T14:19:32.213Z,0.95
2023-02-25T14:21:25.514Z,0.60
2023-02-25T14:23:05.720Z,1.50
2023-02-25T14:24:47.225Z,0.40
2023-02-25T14:26:27.501Z,0.50
2023-02-25T14:28:06.487Z,0.60
2023-02-25T14:29:47.220Z,7.05
2023-02-25T14:31:26.957Z,6.78
2023-02-25T14:33:13.285Z,2.53
2023-02-25T14:35:04.219Z,2.30
2023-02-25T14:36:53.918Z,1.52
2023-02-25T14:38:40.482Z,1.83
2023-02-25T14:40:27.013Z,2.97
2023-02-25T14:42:14.148Z,1.42
2023-02-25T14:43:50.339Z,1.58
2023-02-25T14:45:25.859Z,2.03
2023-02-25T14:47:03.541Z,1.70
2023-02-25T14:48:42.472Z,0.98
2023-02-25T14:50:23.105Z,1.27
2023-02-25T14:52:17.486Z,2.10
2023-02-25T14:54:31.906Z,1.17
2023-02-25T14:56:47.338Z,1.17
2023-02-25T14:59:07.688Z,2.88
2023-02-25T15:00:59.388Z,1.90
2023-02-25T15:02:59.048Z,1.90
2023-02-25T15:05:16.657Z,1.85
2023-02-25T15:07:01.377Z,2.92
2023-02-25T15:08:49.474Z,1.95
2023-02-25T15:10:37.778Z,2.47
2023-02-25T15:12:29.981Z,2.55
2023-02-25T15:14:38.764Z,3.08
2023-02-25T15:16:31.871Z,3.05
2023-02-25T15:18:32.546Z,1.63
2023-02-25T15:20:22.491Z,2.47
2023-02-25T15:22:22.440Z,3.85
2023-02-25T15:23:55.640Z,2.95
2023-02-25T15:25:39.205Z,2.25
2023-02-25T15:27:47.524Z,1.92
2023-02-25T15:29:42.661Z,2.75
2023-02-25T15:31:38.998Z,3.28
2023-02-25T15:33:27.812Z,3.45
2023-02-25T15:35:02.487Z,4.68
2023-02-25T15:36:43.298Z,2.22
2023-02-25T15:38:20.438Z,3.53
2023-02-25T15:39:56.453Z,4.07
2023-02-25T15:42:03.325Z,2.72
2023-02-25T15:43:44.618Z,3.33
2023-02-25T15:45:38.889Z,2.92
2023-02-25T15:47:27.442Z,2.88
2023-02-25T15:49:06.441Z,4.07
2023-02-25T15:50:53.302Z,3.95
2023-02-25T15:52:55.303Z,2.95
2023-02-25T15:54:48.581Z,2.72
2023-02-25T15:56:47.298Z,3.05
2023-02-25T15:58:51.392Z,4.93
2023-02-25T16:00:58.444Z,3.70
2023-02-25T16:02:40.288Z,3.38
2023-02-25T16:04:45.708Z,3.53
2023-02-25T16:06:21.148Z,5.15
2023-02-25T16:08:06.915Z,3.70
2023-02-25T16:09:42.289Z,2.80
2023-02-25T16:11:27.853Z,3.47
2023-02-25T16:13:02.654Z,3.95
2023-02-25T16:14:38.804Z,4.05
2023-02-25T16:16:13.555Z,2.38
2023-02-25T16:17:46.842Z,5.28
2023-02-25T16:19:21.915Z,5.75
2023-02-25T16:21:01.518Z,5.10
2023-02-25T16:22:35.421Z,3.88
2023-02-25T16:24:10.664Z,4.22
2023-02-25T16:25:56.053Z,4.13
2023-02-25T16:27:43.676Z,7.45
2023-02-25T16:29:35.505Z,3.47
2023-02-25T16:31:19.323Z,3.85
2023-02-25T16:33:00.613Z,3.67
2023-02-25T16:34:38.113Z,4.50
2023-02-25T16:36:16.351Z,4.95
2023-02-25T16:37:56.979Z,4.05
2023-02-25T16:39:32.351Z,3.92
2023-02-25T16:41:05.405Z,8.38
2023-02-25T16:42:39.041Z,4.07
2023-02-25T16:44:19.306Z,4.40
2023-02-25T16:45:57.705Z,2.92
2023-02-25T16:47:33.617Z,3.90
2023-02-25T16:49:10.926Z,4.00
2023-02-25T16:50:47.137Z,4.63
2023-02-25T16:52:26.964Z,5.75
2023-02-25T16:54:05.932Z,5.63
2023-02-25T16:55:41.341Z,5.03
2023-02-25T16:57:22.244Z,3.67
2023-02-25T16:59:05.185Z,10.52
2023-02-25T17:00:37.877Z,7.43
2023-02-25T17:02:23.958Z,4.05
2023-02-25T17:04:12.500Z,5.93
2023-02-25T17:05:45.835Z,3.72
2023-02-25T17:07:22.290Z,4.90
2023-02-25T17:09:00.565Z,11.25
2023-02-25T17:10:41.525Z,6.35
2023-02-25T17:12:18.929Z,28.05
2023-02-25T17:13:55.346Z,15.85
2023-02-25T17:15:30.400Z,8.13
2023-02-25T17:17:03.149Z,2.38
2023-02-25T17:18:43.113Z,4.45
2023-02-25T17:20:23.290Z,3.67
2023-02-25T17:21:58.272Z,2.10
2023-02-25T17:23:32.393Z,4.57
2023-02-25T17:25:06.600Z,3.95
2023-02-25T17:26:41.638Z,4.43
2023-02-25T17:28:21.661Z,2.72
2023-02-25T17:29:55.091Z,3.25
2023-02-25T17:31:29.419Z,2.30
2023-02-25T17:33:02.357Z,3.80
2023-02-25T17:34:36.604Z,4.10
2023-02-25T17:36:13.989Z,4.90
2023-02-25T17:37:46.782Z,6.97
2023-02-25T17:39:21.112Z,4.43
2023-02-25T17:40:55.512Z,5.38
2023-02-25T17:42:34.078Z,6.30
2023-02-25T17:44:06.773Z,8.30
2023-02-25T17:45:46.990Z,8.10
2023-02-25T17:47:22.849Z,16.48
2023-02-25T17:48:58.093Z,10.07
2023-02-25T17:50:32.822Z,13.32
2023-02-25T17:52:08.859Z,9.43
2023-02-25T17:53:47.858Z,12.05
2023-02-25T17:55:26.059Z,8.43
2023-02-25T17:57:00.785Z,4.93
2023-02-25T17:58:35.376Z,4.47
2023-02-25T18:00:21.882Z,3.67
2023-02-25T18:01:57.378Z,3.90
2023-02-25T18:03:30.770Z,4.75
2023-02-25T18:05:25.563Z,1.80
2023-02-25T18:06:58.872Z,4.60
2023-02-25T18:08:49.855Z,6.72
2023-02-25T18:10:43.363Z,5.78
2023-02-25T18:12:24.551Z,3.63
2023-02-25T18:13:57.286Z,2.90
2023-02-25T18:15:31.920Z,3.83
2023-02-25T18:17:14.519Z,4.47
2023-02-25T18:18:51.007Z,2.55
2023-02-25T18:20:30.585Z,3.45
2023-02-25T18:22:03.823Z,3.47
2023-02-25T18:23:37.870Z,3.78
2023-02-25T18:25:30.964Z,3.75
2023-02-25T18:27:22.216Z,4.70
2023-02-25T18:28:57.347Z,2.95
2023-02-25T18:30:31.613Z,1.90
2023-02-25T18:32:05.219Z,5.90
2023-02-25T18:33:38.132Z,6.68
2023-02-25T18:35:11.824Z,4.60
2023-02-25T18:36:44.679Z,5.57
2023-02-25T18:38:19.298Z,5.25
2023-02-25T18:39:53.322Z,6.28
2023-02-25T18:41:26.078Z,3.35
2023-02-25T18:42:59.620Z,4.43
2023-02-25T18:44:32.389Z,2.70
2023-02-25T18:46:05.306Z,3.47
2023-02-25T18:47:38.017Z,1.77
2023-02-25T18:49:10.989Z,2.58
2023-02-25T18:50:45.601Z,2.83
2023-02-25T18:52:22.253Z,3.63
2023-02-25T18:53:57.642Z,3.08
2023-02-25T18:55:33.985Z,2.42
2023-02-25T18:57:17.123Z,5.00
2023-02-25T18:58:49.868Z,3.40
2023-02-25T19:00:24.538Z,1.60
2023-02-25T19:01:57.756Z,2.38
2023-02-25T19:03:33.125Z,2.08
2023-02-25T19:05:06.843Z,4.40
2023-02-25T19:06:39.580Z,1.48
2023-02-25T19:08:14.003Z,1.60
2023-02-25T19:09:46.738Z,3.30
2023-02-25T19:11:23.477Z,2.22
2023-02-25T19:13:02.977Z,1.52
2023-02-25T19:14:35.719Z,2.60
2023-02-25T19:16:09.071Z,2.15
2023-02-25T19:17:41.948Z,2.42
2023-02-25T19:19:14.837Z,1.50
2023-02-25T19:20:47.849Z,2.08
2023-02-25T19:22:20.930Z,2.00
2023-02-25T19:23:55.322Z,2.78
2023-02-25T19:25:31.406Z,3.10
2023-02-25T19:27:05.659Z,3.58
2023-02-25T19:28:38.618Z,1.73
2023-02-25T19:30:15.317Z,2.72
2023-02-25T19:31:48.265Z,3.83
2023-02-25T19:33:21.073Z,2.40
2023-02-25T19:34:53.827Z,2.95
2023-02-25T19:36:26.936Z,1.77
2023-02-25T19:38:00.197Z,4.25
2023-02-25T19:39:33.054Z,4.65
2023-02-25T19:41:07.138Z,8.13
2023-02-25T19:42:43.138Z,12.25
2023-02-25T19:44:15.826Z,10.30
2023-02-25T19:45:50.424Z,16.02
2023-02-25T19:47:23.147Z,15.18
2023-02-25T19:48:55.955Z,12.60
2023-02-25T19:50:31.253Z,11.32
2023-02-25T19:52:04.558Z,7.68
2023-02-25T19:53:37.936Z,8.02
2023-02-25T19:55:12.194Z,8.93
2023-02-25T19:56:44.946Z,25.80
2023-02-25T19:58:19.745Z,26.50
2023-02-25T19:59:52.758Z,11.90
2023-02-25T20:01:26.148Z,6.65
2023-02-25T20:02:59.198Z,5.43
2023-02-25T20:04:32.090Z,10.30
2023-02-25T20:06:06.669Z,5.32
2023-02-25T20:07:39.447Z,2.75
2023-02-25T20:09:12.145Z,3.40
2023-02-25T20:10:45.079Z,3.20
2023-02-25T20:12:17.958Z,1.88
2023-02-25T20:13:52.016Z,3.20
2023-02-25T20:15:24.890Z,2.75
2023-02-25T20:16:59.458Z,2.88
2023-02-25T20:18:32.268Z,3.28
2023-02-25T20:20:07.040Z,2.17
2023-02-25T20:21:40.310Z,3.33
2023-02-25T20:23:13.017Z,2.03
2023-02-25T20:24:47.672Z,5.22
2023-02-25T20:26:23.006Z,4.15
2023-02-25T20:27:56.042Z,4.75
2023-02-25T20:29:30.460Z,2.70
2023-02-25T20:31:08.248Z,1.88
2023-02-25T20:32:41.954Z,3.83
2023-02-25T20:34:17.850Z,5.22
2023-02-25T20:35:50.951Z,4.10
2023-02-25T20:37:29.305Z,4.72
2023-02-25T20:39:20.313Z,3.58
2023-02-25T20:40:53.567Z,4.90
2023-02-25T20:42:28.353Z,3.20
2023-02-25T20:44:01.320Z,3.53
2023-02-25T20:45:36.365Z,2.35
2023-02-25T20:47:14.002Z,3.15
2023-02-25T20:48:47.185Z,4.35
2023-02-25T20:50:24.326Z,6.13
2023-02-25T20:51:57.764Z,7.47
2023-02-25T20:53:31.019Z,11.60
2023-02-25T20:55:04.877Z,16.02
2023-02-25T20:56:39.701Z,7.25
2023-02-25T20:58:12.552Z,7.00
2023-02-25T20:59:45.548Z,4.82
2023-02-25T21:01:19.791Z,4.13
2023-02-25T21:02:52.525Z,4.35
2023-02-25T21:04:25.691Z,6.07
2023-02-25T21:05:58.804Z,4.60
2023-02-25T21:07:31.841Z,3.63
2023-02-25T21:09:05.649Z,5.28
2023-02-25T21:10:38.329Z,9.30
2023-02-25T21:12:11.196Z,6.53
2023-02-25T21:13:45.418Z,10.02
2023-02-25T21:15:18.609Z,12.05
2023-02-25T21:16:54.247Z,5.60
2023-02-25T21:18:27.690Z,7.53
2023-02-25T21:20:00.377Z,10.70
2023-02-25T21:21:37.135Z,8.98
2023-02-25T21:23:11.313Z,7.70
2023-02-25T21:24:44.122Z,5.85
2023-02-25T21:26:16.948Z,6.50
2023-02-25T21:27:49.620Z,7.20
2023-02-25T21:29:22.456Z,6.82
2023-02-25T21:31:02.033Z,4.53
2023-02-25T21:32:36.089Z,2.92
2023-02-25T21:34:11.602Z,3.50
2023-02-25T21:35:44.757Z,3.85